createdAt,value
2022-08-19T00:00:56.851Z,99.16
2022-08-19T00:01:56.819Z,98.97
2022-08-19T00:02:56.811Z,98.86
2022-08-19T00:03:56.780Z,99.07
2022-08-19T00:04:57.207Z,99.47
2022-08-19T00:05:56.763Z,99.62
2022-08-19T00:06:56.848Z,99.52
2022-08-19T00:07:56.726Z,99.52
2022-08-19T00:08:56.729Z,99.52
2022-08-19T00:09:57.198Z,99.91
2022-08-19T00:10:56.788Z,99.99
2022-08-19T00:11:56.757Z,99.99
2022-08-19T00:12:56.720Z,99.99
2022-08-19T00:13:56.759Z,99.99
2022-08-19T00:14:57.099Z,99.99
2022-08-19T00:15:56.619Z,99.99
2022-08-19T00:16:56.658Z,99.99
2022-08-19T00:17:56.598Z,99.99
2022-08-19T00:18:56.998Z,99.99
2022-08-19T00:19:56.635Z,99.99
2022-08-19T00:20:56.592Z,99.99
2022-08-19T00:21:56.552Z,99.99
2022-08-19T00:22:56.564Z,99.99
2022-08-19T00:23:56.964Z,99.99
2022-08-19T00:24:56.567Z,99.99
2022-08-19T00:25:56.597Z,99.99
2022-08-19T00:26:56.568Z,99.99
2022-08-19T00:27:56.477Z,99.99
2022-08-19T00:28:56.946Z,99.99
2022-08-19T00:29:56.495Z,99.99
2022-08-19T00:30:56.457Z,99.99
2022-08-19T00:31:56.417Z,99.99
2022-08-19T00:32:56.440Z,99.99
2022-08-19T00:33:56.790Z,99.99
2022-08-19T00:34:56.417Z,99.99
2022-08-19T00:35:56.456Z,99.99
2022-08-19T00:36:56.394Z,99.99
2022-08-19T00:37:56.358Z,99.99
2022-08-19T00:38:56.792Z,99.99
2022-08-19T00:39:56.357Z,99.99
2022-08-19T00:40:56.320Z,99.99
2022-08-19T00:41:56.296Z,99.99
2022-08-19T00:42:56.293Z,99.99
2022-08-19T00:43:56.709Z,99.99
2022-08-19T00:44:56.317Z,99.99
2022-08-19T00:45:56.274Z,99.99
2022-08-19T00:46:58.059Z,99.99
2022-08-19T00:47:56.279Z,99.99
2022-08-19T00:48:56.598Z,99.99
2022-08-19T00:49:56.225Z,99.99
2022-08-19T00:50:56.224Z,99.99
2022-08-19T00:51:56.183Z,99.99
2022-08-19T00:52:56.583Z,99.99
2022-08-19T00:53:56.145Z,99.99
2022-08-19T00:54:56.145Z,99.99
2022-08-19T00:55:56.114Z,99.99
2022-08-19T00:56:56.133Z,99.99
2022-08-19T00:57:56.567Z,99.99
2022-08-19T00:58:56.148Z,99.99
2022-08-19T01:00:01.665Z,99.99
2022-08-19T01:00:57.086Z,99.99
2022-08-19T01:01:56.101Z,99.99
2022-08-19T01:02:56.409Z,99.99
2022-08-19T01:03:56.781Z,99.99
2022-08-19T01:04:55.994Z,99.99
2022-08-19T01:05:55.981Z,99.99
2022-08-19T01:06:55.984Z,99.99
2022-08-19T01:07:56.393Z,99.99
2022-08-19T01:08:56.009Z,99.99
2022-08-19T01:09:55.967Z,99.99
2022-08-19T01:10:55.951Z,99.99
2022-08-19T01:11:55.927Z,99.99
2022-08-19T01:12:56.292Z,99.99
2022-08-19T01:13:55.892Z,99.99
2022-08-19T01:14:55.913Z,99.99
2022-08-19T01:15:55.885Z,99.99
2022-08-19T01:16:55.881Z,99.99
2022-08-19T01:17:56.180Z,99.99
2022-08-19T01:18:55.872Z,99.99
2022-08-19T01:19:55.821Z,99.99
2022-08-19T01:20:55.792Z,99.99
2022-08-19T01:21:55.781Z,99.99
2022-08-19T01:22:56.202Z,99.99
2022-08-19T01:23:55.782Z,99.99
2022-08-19T01:24:55.758Z,99.99
2022-08-19T01:25:55.760Z,99.99
2022-08-19T01:26:55.723Z,99.99
2022-08-19T01:27:55.772Z,99.99
2022-08-19T01:28:59.422Z,99.99
2022-08-19T01:29:55.691Z,99.99
2022-08-19T01:30:55.703Z,99.99
2022-08-19T01:31:55.685Z,99.99
2022-08-19T01:32:55.661Z,99.99
2022-08-19T01:33:55.627Z,99.99
2022-08-19T01:34:56.043Z,99.99
2022-08-19T01:35:55.640Z,99.99
2022-08-19T01:36:55.598Z,99.99
2022-08-19T01:37:55.640Z,99.99
2022-08-19T01:38:55.588Z,99.99
2022-08-19T01:39:55.602Z,99.99
2022-08-19T01:40:55.920Z,99.99
2022-08-19T01:41:55.548Z,99.99
2022-08-19T01:42:55.582Z,99.99
2022-08-19T01:44:03.174Z,99.99
2022-08-19T01:44:56.947Z,99.99
2022-08-19T01:45:55.476Z,99.99
2022-08-19T01:46:55.536Z,99.99
2022-08-19T01:48:02.079Z,99.99
2022-08-19T01:48:56.436Z,99.99
2022-08-19T01:49:55.495Z,99.99
2022-08-19T01:50:55.847Z,99.99
2022-08-19T01:51:55.432Z,99.99
2022-08-19T01:53:06.404Z,99.99
2022-08-19T01:53:56.386Z,99.99
2022-08-19T01:54:55.760Z,99.99
2022-08-19T01:55:55.358Z,99.99
2022-08-19T01:56:55.356Z,99.99
2022-08-19T01:57:55.385Z,99.99
2022-08-19T01:58:55.306Z,99.99
2022-08-19T01:59:55.335Z,99.99
2022-08-19T02:00:55.697Z,99.99
2022-08-19T02:01:55.348Z,99.99
2022-08-19T02:02:55.288Z,99.99
2022-08-19T02:03:56.862Z,99.99
2022-08-19T02:04:55.698Z,99.99
2022-08-19T02:05:55.261Z,99.99
2022-08-19T02:06:55.216Z,99.99
2022-08-19T02:07:55.253Z,99.99
2022-08-19T02:08:57.587Z,99.99
2022-08-19T02:09:55.533Z,99.99
2022-08-19T02:10:55.162Z,99.99
2022-08-19T02:11:55.159Z,99.99
2022-08-19T02:12:55.233Z,99.99
2022-08-19T02:13:55.136Z,99.99
2022-08-19T02:14:55.605Z,99.99
2022-08-19T02:15:55.095Z,99.99
2022-08-19T02:16:55.132Z,99.99
2022-08-19T02:17:55.075Z,99.99
2022-08-19T02:18:55.083Z,99.99
2022-08-19T02:19:55.035Z,99.99
2022-08-19T02:20:55.475Z,99.99
2022-08-19T02:21:55.035Z,99.99
2022-08-19T02:22:55.307Z,99.99
2022-08-19T02:23:54.993Z,99.99
2022-08-19T02:24:55.543Z,99.99
2022-08-19T02:25:55.175Z,99.99
2022-08-19T02:26:54.984Z,99.99
2022-08-19T02:27:54.953Z,99.99
2022-08-19T02:28:54.956Z,99.99
2022-08-19T02:29:54.954Z,99.99
2022-08-19T02:30:55.255Z,99.99
2022-08-19T02:31:54.893Z,99.99
2022-08-19T02:32:55.162Z,99.99
2022-08-19T02:33:56.907Z,99.99
2022-08-19T02:34:55.274Z,99.99
2022-08-19T02:35:54.856Z,99.99
2022-08-19T02:36:55.620Z,99.99
2022-08-19T02:37:54.863Z,99.99
2022-08-19T02:38:55.526Z,99.99
2022-08-19T02:39:55.200Z,99.99
2022-08-19T02:40:54.793Z,99.99
2022-08-19T02:41:54.761Z,99.99
2022-08-19T02:42:54.878Z,99.99
2022-08-19T02:44:29.086Z,99.99
2022-08-19T02:44:56.149Z,99.99
2022-08-19T02:45:54.767Z,99.99
2022-08-19T02:46:54.718Z,99.99
2022-08-19T02:47:54.700Z,99.99
2022-08-19T02:48:54.682Z,99.99
2022-08-19T02:49:55.043Z,99.99
2022-08-19T02:50:54.664Z,99.99
2022-08-19T02:51:54.641Z,99.99
2022-08-19T02:52:54.703Z,99.99
2022-08-19T02:53:54.622Z,99.99
2022-08-19T02:54:55.023Z,99.99
2022-08-19T02:55:54.644Z,99.99
2022-08-19T02:56:54.574Z,99.99
2022-08-19T02:57:54.567Z,99.99
2022-08-19T02:58:54.531Z,99.99
2022-08-19T02:59:54.958Z,99.99
2022-08-19T03:00:54.581Z,99.99
2022-08-19T03:01:54.509Z,99.99
2022-08-19T03:02:54.632Z,99.99
2022-08-19T03:03:54.900Z,99.99
2022-08-19T03:04:54.480Z,99.99
2022-08-19T03:05:56.821Z,99.99
2022-08-19T03:06:54.432Z,99.99
2022-08-19T03:07:54.426Z,99.99
2022-08-19T03:08:54.850Z,99.99
2022-08-19T03:09:54.429Z,99.99
2022-08-19T03:10:54.473Z,99.99
2022-08-19T03:11:54.379Z,99.99
2022-08-19T03:12:54.526Z,99.99
2022-08-19T03:13:54.367Z,99.99
2022-08-19T03:14:54.646Z,99.99
2022-08-19T03:15:54.339Z,99.99
2022-08-19T03:16:54.318Z,99.99
2022-08-19T03:17:54.317Z,99.99
2022-08-19T03:18:54.710Z,99.99
2022-08-19T03:19:54.268Z,99.99
2022-08-19T03:20:54.268Z,99.99
2022-08-19T03:21:54.264Z,99.99
2022-08-19T03:22:54.377Z,99.99
2022-08-19T03:23:54.618Z,99.99
2022-08-19T03:24:54.194Z,99.99
2022-08-19T03:25:58.455Z,99.99
2022-08-19T03:26:55.177Z,99.99
2022-08-19T03:27:54.178Z,99.99
2022-08-19T03:28:57.896Z,99.99
2022-08-19T03:29:54.167Z,99.99
2022-08-19T03:30:54.151Z,99.99
2022-08-19T03:31:54.103Z,99.99
2022-08-19T03:32:54.131Z,99.99
2022-08-19T03:33:54.525Z,99.99
2022-08-19T03:34:54.095Z,99.99
2022-08-19T03:35:54.060Z,99.99
2022-08-19T03:36:54.075Z,99.99
2022-08-19T03:37:54.045Z,99.99
2022-08-19T03:38:57.501Z,99.99
2022-08-19T03:39:55.155Z,99.99
2022-08-19T03:40:53.996Z,99.99
2022-08-19T03:42:32.784Z,99.99
2022-08-19T03:42:55.386Z,99.99
2022-08-19T03:43:53.979Z,99.99
2022-08-19T03:44:53.937Z,99.99
2022-08-19T03:45:53.935Z,99.99
2022-08-19T03:46:53.910Z,99.99
2022-08-19T03:47:54.362Z,99.99
2022-08-19T03:48:53.914Z,99.99
2022-08-19T03:49:53.884Z,99.99
2022-08-19T03:50:53.885Z,99.99
2022-08-19T03:51:53.872Z,99.99
2022-08-19T03:52:54.116Z,99.99
2022-08-19T03:53:54.253Z,99.99
2022-08-19T03:54:53.834Z,99.99
2022-08-19T03:55:53.863Z,99.99
2022-08-19T03:56:53.812Z,99.99
2022-08-19T03:57:58.645Z,99.99
2022-08-19T03:58:53.779Z,99.99
2022-08-19T03:59:53.761Z,99.99
2022-08-19T04:00:53.778Z,99.99
2022-08-19T04:01:53.743Z,99.99
2022-08-19T04:03:00.594Z,99.99
2022-08-19T04:03:54.694Z,99.99
2022-08-19T04:04:53.683Z,99.99
2022-08-19T04:05:53.693Z,99.99
2022-08-19T04:06:53.665Z,99.99
2022-08-19T04:07:54.112Z,99.99
2022-08-19T04:08:53.662Z,99.99
2022-08-19T04:09:53.620Z,99.99
2022-08-19T04:10:53.619Z,99.99
2022-08-19T04:11:53.623Z,99.99
2022-08-19T04:12:54.119Z,99.99
2022-08-19T04:13:53.580Z,99.99
2022-08-19T04:14:53.551Z,99.99
2022-08-19T04:15:53.571Z,99.99
2022-08-19T04:16:53.531Z,99.99
2022-08-19T04:17:53.971Z,99.99
2022-08-19T04:18:53.499Z,99.99
2022-08-19T04:19:53.511Z,99.99
2022-08-19T04:20:53.499Z,99.99
2022-08-19T04:21:53.910Z,99.99
2022-08-19T04:22:53.629Z,99.99
2022-08-19T04:23:53.440Z,99.99
2022-08-19T04:24:53.418Z,99.99
2022-08-19T04:25:53.410Z,99.99
2022-08-19T04:26:53.850Z,99.99
2022-08-19T04:27:53.372Z,99.99
2022-08-19T04:28:53.390Z,99.99
2022-08-19T04:29:53.369Z,99.99
2022-08-19T04:30:53.359Z,99.99
2022-08-19T04:31:53.791Z,99.99
2022-08-19T04:32:53.439Z,99.99
2022-08-19T04:33:53.397Z,99.99
2022-08-19T04:35:02.097Z,99.99
2022-08-19T04:35:54.317Z,99.99
2022-08-19T04:36:53.608Z,99.99
2022-08-19T04:37:53.262Z,99.99
2022-08-19T04:38:53.279Z,99.99
2022-08-19T04:39:53.274Z,99.99
2022-08-19T04:40:54.229Z,99.99
2022-08-19T04:41:53.707Z,99.99
2022-08-19T04:42:53.337Z,99.99
2022-08-19T04:43:53.177Z,99.85
2022-08-19T04:44:53.148Z,99.45
2022-08-19T04:45:56.438Z,99.25
2022-08-19T04:46:53.475Z,98.85
2022-08-19T04:47:58.755Z,98.54
2022-08-19T04:48:54.148Z,98.54
2022-08-19T04:49:53.093Z,98.70
2022-08-19T04:50:53.087Z,98.70
2022-08-19T04:51:53.516Z,98.70
2022-08-19T04:52:53.153Z,98.70
2022-08-19T04:53:53.074Z,98.39
2022-08-19T04:54:53.037Z,98.50
2022-08-19T04:55:53.046Z,98.60
2022-08-19T04:56:53.057Z,98.50
2022-08-19T04:57:53.327Z,98.60
2022-08-19T04:58:53.006Z,98.70
2022-08-19T04:59:52.981Z,98.60
2022-08-19T05:00:53.028Z,98.80
2022-08-19T05:01:52.973Z,98.90
2022-08-19T05:02:53.076Z,98.90
2022-08-19T05:03:53.295Z,98.60
2022-08-19T05:04:52.907Z,98.80
2022-08-19T05:05:52.886Z,98.80
2022-08-19T05:06:52.906Z,98.50
2022-08-19T05:07:53.886Z,97.99
2022-08-19T05:08:52.858Z,98.19
2022-08-19T05:09:58.374Z,98.60
2022-08-19T05:10:53.854Z,98.19
2022-08-19T05:11:52.828Z,98.39
2022-08-19T05:12:52.969Z,98.39
2022-08-19T05:13:52.815Z,98.39
2022-08-19T05:14:53.114Z,98.55
2022-08-19T05:15:52.798Z,98.45
2022-08-19T05:17:06.445Z,98.35
2022-08-19T05:17:53.736Z,98.05
2022-08-19T05:18:52.734Z,98.35
2022-08-19T05:19:53.125Z,98.35
2022-08-19T05:20:52.711Z,98.15
2022-08-19T05:21:52.698Z,98.35
2022-08-19T05:22:52.856Z,98.55
2022-08-19T05:23:52.676Z,98.45
2022-08-19T05:25:11.745Z,98.35
2022-08-19T05:25:53.643Z,98.35
2022-08-19T05:26:52.640Z,97.95
2022-08-19T05:27:52.627Z,97.64
2022-08-19T05:28:54.807Z,98.15
2022-08-19T05:29:53.080Z,98.15
2022-08-19T05:30:52.632Z,97.44
2022-08-19T05:31:52.567Z,95.84
2022-08-19T05:32:52.675Z,95.03
2022-08-19T05:33:52.543Z,95.43
2022-08-19T05:34:52.882Z,95.94
2022-08-19T05:35:52.512Z,95.84
2022-08-19T05:36:52.523Z,96.24
2022-08-19T05:37:54.970Z,96.74
2022-08-19T05:38:53.461Z,97.24
2022-08-19T05:39:52.948Z,97.14
2022-08-19T05:40:52.487Z,96.94
2022-08-19T05:41:52.489Z,97.04
2022-08-19T05:42:55.407Z,97.14
2022-08-19T05:43:52.424Z,97.24
2022-08-19T05:44:52.789Z,97.30
2022-08-19T05:45:52.535Z,97.34
2022-08-19T05:46:52.793Z,97.14
2022-08-19T05:47:54.081Z,97.30
2022-08-19T05:48:52.450Z,97.50
2022-08-19T05:49:53.012Z,97.70
2022-08-19T05:50:52.350Z,97.80
2022-08-19T05:51:52.342Z,97.60
2022-08-19T05:52:52.361Z,97.50
2022-08-19T05:53:52.298Z,97.40
2022-08-19T05:54:52.842Z,97.50
2022-08-19T05:55:52.379Z,97.60
2022-08-19T05:56:52.240Z,97.50
2022-08-19T05:57:52.209Z,97.50
2022-08-19T05:58:52.267Z,97.30
2022-08-19T05:59:52.755Z,97.40
2022-08-19T06:00:53.187Z,97.40
2022-08-19T06:01:52.179Z,97.50
2022-08-19T06:02:52.755Z,97.40
2022-08-19T06:03:52.381Z,97.40
2022-08-19T06:04:52.189Z,97.40
2022-08-19T06:05:52.329Z,97.30
2022-08-19T06:06:52.160Z,97.40
2022-08-19T06:07:52.185Z,97.30
2022-08-19T06:08:52.407Z,97.20
2022-08-19T06:10:00.347Z,97.40
2022-08-19T06:10:53.089Z,97.20
2022-08-19T06:11:55.729Z,97.09
2022-08-19T06:12:52.057Z,97.50
2022-08-19T06:13:59.731Z,97.50
2022-08-19T06:15:01.158Z,97.50
2022-08-19T06:15:53.008Z,97.60
2022-08-19T06:16:52.016Z,97.50
2022-08-19T06:17:52.086Z,97.30
2022-08-19T06:18:51.973Z,97.45
2022-08-19T06:19:52.345Z,97.00
2022-08-19T06:20:56.022Z,97.20
2022-08-19T06:21:51.956Z,96.89
2022-08-19T06:22:51.887Z,97.09
2022-08-19T06:23:51.915Z,97.60
2022-08-19T06:24:52.286Z,97.60
2022-08-19T06:25:51.876Z,97.90
2022-08-19T06:26:51.902Z,98.00
2022-08-19T06:28:14.126Z,97.80
2022-08-19T06:28:52.879Z,98.10
2022-08-19T06:29:51.805Z,97.70
2022-08-19T06:30:52.198Z,97.90
2022-08-19T06:31:51.804Z,97.09
2022-08-19T06:32:51.773Z,97.20
2022-08-19T06:33:51.755Z,97.09
2022-08-19T06:34:52.216Z,97.20
2022-08-19T06:35:51.756Z,97.00
2022-08-19T06:36:51.756Z,96.69
2022-08-19T06:37:51.744Z,96.89
2022-08-19T06:38:51.745Z,97.09
2022-08-19T06:39:53.203Z,97.00
2022-08-19T06:40:51.701Z,97.00
2022-08-19T06:41:53.364Z,97.30
2022-08-19T06:42:54.573Z,97.15
2022-08-19T06:43:53.994Z,96.65
2022-08-19T06:44:53.602Z,93.78
2022-08-19T06:45:51.616Z,94.18
2022-08-19T06:46:54.854Z,94.13
2022-08-19T06:47:51.575Z,93.93
2022-08-19T06:48:51.596Z,94.13
2022-08-19T06:49:51.992Z,94.54
2022-08-19T06:50:51.581Z,95.04
2022-08-19T06:51:51.847Z,95.44
2022-08-19T06:52:51.534Z,95.34
2022-08-19T06:54:55.806Z,94.13
2022-08-19T06:55:51.512Z,93.63
2022-08-19T06:56:51.485Z,92.83
2022-08-19T06:57:51.516Z,92.63
2022-08-19T06:58:52.003Z,93.23
2022-08-19T06:59:51.434Z,93.23
2022-08-19T07:00:51.418Z,92.83
2022-08-19T07:01:51.385Z,92.43
2022-08-19T07:02:55.782Z,92.23
2022-08-19T07:03:52.629Z,92.13
2022-08-19T07:04:52.643Z,92.13
2022-08-19T07:05:51.350Z,92.43
2022-08-19T07:06:54.965Z,92.53
2022-08-19T07:07:51.323Z,92.83
2022-08-19T07:08:51.352Z,93.09
2022-08-19T07:09:59.054Z,93.19
2022-08-19T07:10:52.311Z,93.39
2022-08-19T07:11:51.283Z,93.49
2022-08-19T07:12:51.387Z,93.39
2022-08-19T07:13:51.276Z,93.29
2022-08-19T07:14:51.591Z,92.99
2022-08-19T07:15:51.224Z,92.38
2022-08-19T07:16:51.247Z,91.88
2022-08-19T07:17:52.618Z,92.38
2022-08-19T07:18:51.220Z,92.65
2022-08-19T07:19:51.162Z,92.44
2022-08-19T07:20:51.588Z,92.84
2022-08-19T07:21:51.153Z,92.84
2022-08-19T07:22:51.179Z,92.65
2022-08-19T07:23:51.104Z,93.04
2022-08-19T07:24:51.734Z,92.84
2022-08-19T07:25:53.115Z,92.44
2022-08-19T07:26:51.780Z,92.14
2022-08-19T07:27:54.341Z,92.44
2022-08-19T07:28:51.467Z,91.24
2022-08-19T07:29:55.838Z,91.24
2022-08-19T07:30:52.015Z,91.58
2022-08-19T07:31:51.080Z,92.29
2022-08-19T07:32:51.010Z,92.69
2022-08-19T07:33:50.970Z,92.79
2022-08-19T07:34:50.995Z,93.09
2022-08-19T07:35:50.959Z,93.39
2022-08-19T07:36:50.942Z,92.69
2022-08-19T07:37:50.913Z,92.99
2022-08-19T07:38:50.920Z,93.49
2022-08-19T07:39:50.945Z,93.49
2022-08-19T07:40:51.202Z,93.39
2022-08-19T07:41:50.863Z,93.69
2022-08-19T07:42:50.861Z,93.35
2022-08-19T07:43:50.847Z,92.79
2022-08-19T07:44:51.229Z,92.89
2022-08-19T07:45:50.889Z,93.29
2022-08-19T07:46:53.177Z,92.89
2022-08-19T07:47:51.292Z,92.69
2022-08-19T07:48:50.821Z,92.58
2022-08-19T07:49:51.495Z,92.79
2022-08-19T07:50:51.175Z,92.99
2022-08-19T07:51:50.799Z,92.99
2022-08-19T07:52:50.896Z,92.99
2022-08-19T07:53:50.757Z,93.29
2022-08-19T07:54:51.044Z,93.39
2022-08-19T07:55:50.709Z,93.39
2022-08-19T07:56:50.697Z,93.39
2022-08-19T07:57:50.659Z,93.19
2022-08-19T07:58:50.852Z,93.19
2022-08-19T07:59:50.640Z,93.49
2022-08-19T08:00:50.664Z,93.19
2022-08-19T08:01:50.713Z,92.58
2022-08-19T08:03:00.629Z,93.39
2022-08-19T08:03:59.527Z,93.59
2022-08-19T08:04:57.825Z,93.19
2022-08-19T08:05:58.752Z,92.53
2022-08-19T08:06:57.764Z,93.03
2022-08-19T08:07:50.596Z,93.33
2022-08-19T08:08:50.609Z,93.23
2022-08-19T08:09:50.693Z,92.99
2022-08-19T08:10:53.114Z,93.29
2022-08-19T08:11:51.483Z,93.49
2022-08-19T08:13:09.589Z,93.69
2022-08-19T08:14:01.297Z,93.89
2022-08-19T08:14:51.879Z,93.69
2022-08-19T08:15:50.439Z,93.69
2022-08-19T08:16:50.509Z,93.49
2022-08-19T08:17:51.548Z,93.39
2022-08-19T08:18:53.165Z,92.99
2022-08-19T08:19:50.402Z,93.49
2022-08-19T08:20:50.399Z,93.39
2022-08-19T08:21:50.366Z,93.59
2022-08-19T08:22:50.387Z,93.59
2022-08-19T08:23:52.128Z,93.59
2022-08-19T08:24:50.639Z,93.39
2022-08-19T08:25:50.286Z,93.39
2022-08-19T08:26:52.123Z,93.49
2022-08-19T08:27:53.716Z,93.49
2022-08-19T08:28:50.298Z,93.49
2022-08-19T08:29:50.267Z,93.39
2022-08-19T08:30:50.892Z,93.49
2022-08-19T08:31:59.901Z,93.69
2022-08-19T08:32:51.270Z,93.59
2022-08-19T08:33:50.221Z,93.89
2022-08-19T08:34:52.497Z,93.69
2022-08-19T08:35:50.166Z,93.65
2022-08-19T08:36:50.197Z,93.44
2022-08-19T08:37:51.233Z,93.35
2022-08-19T08:38:50.250Z,93.15
2022-08-19T08:39:50.206Z,93.15
2022-08-19T08:40:50.494Z,92.65
2022-08-19T08:41:50.139Z,92.50
2022-08-19T08:42:50.090Z,92.40
2022-08-19T08:43:50.102Z,92.40
2022-08-19T08:44:50.514Z,92.20
2022-08-19T08:45:53.477Z,92.10
2022-08-19T08:46:50.051Z,92.00
2022-08-19T08:47:50.123Z,91.30
2022-08-19T08:48:52.719Z,91.30
2022-08-19T08:49:51.177Z,91.30
2022-08-19T08:50:50.306Z,91.09
2022-08-19T08:51:56.056Z,91.60
2022-08-19T08:52:51.145Z,92.30
2022-08-19T08:53:50.035Z,92.60
2022-08-19T08:54:55.194Z,91.89
2022-08-19T08:55:49.920Z,91.39
2022-08-19T08:56:49.924Z,91.69
2022-08-19T08:57:49.938Z,91.60
2022-08-19T08:58:54.267Z,91.89
2022-08-19T08:59:49.888Z,91.35
2022-08-19T09:00:50.305Z,91.75
2022-08-19T09:01:49.978Z,92.35
2022-08-19T09:02:50.923Z,91.89
2022-08-19T09:03:49.825Z,92.00
2022-08-19T09:04:50.285Z,91.89
2022-08-19T09:05:49.834Z,92.00
2022-08-19T09:06:49.786Z,91.60
2022-08-19T09:07:49.785Z,91.69
2022-08-19T09:08:49.814Z,91.89
2022-08-19T09:09:49.767Z,91.80
2022-08-19T09:10:55.073Z,91.50
2022-08-19T09:11:50.723Z,91.50
2022-08-19T09:12:49.694Z,91.80
2022-08-19T09:13:49.683Z,91.89
2022-08-19T09:14:51.183Z,92.20
2022-08-19T09:15:49.665Z,92.00
2022-08-19T09:16:49.656Z,91.39
2022-08-19T09:17:50.202Z,91.30
2022-08-19T09:18:49.643Z,91.30
2022-08-19T09:19:50.003Z,91.69
2022-08-19T09:20:49.627Z,92.20
2022-08-19T09:21:49.572Z,91.69
2022-08-19T09:22:49.562Z,91.89
2022-08-19T09:23:50.965Z,91.80
2022-08-19T09:24:49.883Z,91.50
2022-08-19T09:25:50.738Z,91.69
2022-08-19T09:26:52.811Z,92.00
2022-08-19T09:27:49.551Z,92.10
2022-08-19T09:28:49.498Z,91.80
2022-08-19T09:29:49.498Z,91.39
2022-08-19T09:30:49.794Z,90.89
2022-08-19T09:31:49.492Z,91.69
2022-08-19T09:32:53.111Z,91.50
2022-08-19T09:33:49.444Z,91.50
2022-08-19T09:34:51.507Z,91.50
2022-08-19T09:35:53.422Z,91.60
2022-08-19T09:36:49.391Z,91.80
2022-08-19T09:37:49.440Z,92.10
2022-08-19T09:38:50.403Z,92.10
2022-08-19T09:39:49.406Z,91.89
2022-08-19T09:40:49.760Z,92.30
2022-08-19T09:41:49.331Z,92.50
2022-08-19T09:42:49.744Z,92.00
2022-08-19T09:43:49.323Z,91.89
2022-08-19T09:44:49.730Z,92.80
2022-08-19T09:45:49.321Z,92.70
2022-08-19T09:46:49.270Z,92.90
2022-08-19T09:47:49.337Z,93.00
2022-08-19T09:48:49.261Z,93.10
2022-08-19T09:49:49.609Z,93.10
2022-08-19T09:50:51.980Z,93.60
2022-08-19T09:51:51.299Z,92.90
2022-08-19T09:52:53.891Z,92.40
2022-08-19T09:55:00.952Z,92.05
2022-08-19T09:57:11.065Z,91.35
2022-08-19T09:59:27.168Z,92.05
2022-08-19T10:00:27.444Z,92.35
2022-08-19T10:01:35.285Z,93.05
2022-08-19T10:02:27.022Z,93.16
2022-08-19T10:03:29.901Z,93.36
2022-08-19T10:04:26.935Z,93.46
2022-08-19T10:05:27.502Z,93.90
2022-08-19T10:06:45.589Z,93.80
2022-08-19T10:07:28.954Z,94.10
2022-08-19T10:08:27.891Z,94.40
2022-08-19T10:09:34.409Z,94.20
2022-08-19T10:10:28.275Z,94.00
2022-08-19T10:11:28.650Z,93.90
2022-08-19T10:12:27.829Z,93.90
2022-08-19T10:13:27.514Z,94.31
2022-08-19T10:14:26.847Z,94.25
2022-08-19T10:15:28.812Z,94.25
2022-08-19T10:16:30.465Z,94.45
2022-08-19T10:17:26.872Z,94.05
2022-08-19T10:18:26.793Z,94.35
2022-08-19T10:19:26.731Z,94.85
2022-08-19T10:20:27.155Z,94.95
2022-08-19T10:21:26.718Z,95.01
2022-08-19T10:22:26.754Z,94.60
2022-08-19T10:23:26.704Z,94.65
2022-08-19T10:24:27.714Z,94.45
2022-08-19T10:25:27.116Z,94.60
2022-08-19T10:26:26.723Z,94.40
2022-08-19T10:27:26.661Z,94.60
2022-08-19T10:28:33.834Z,94.71
2022-08-19T10:29:33.771Z,94.81
2022-08-19T10:30:27.078Z,94.90
2022-08-19T10:32:00.279Z,95.01
2022-08-19T10:33:53.617Z,95.81
2022-08-19T10:35:56.594Z,95.01
2022-08-19T10:38:02.043Z,95.41
2022-08-19T10:38:58.461Z,95.31
2022-08-19T10:39:58.208Z,95.41
2022-08-19T10:40:57.615Z,95.31
2022-08-19T10:41:58.013Z,95.31
2022-08-19T10:43:07.477Z,95.71
2022-08-19T10:43:57.705Z,96.41
2022-08-19T10:44:58.630Z,96.01
2022-08-19T10:45:57.577Z,96.11
2022-08-19T10:47:17.885Z,96.01
2022-08-19T10:48:04.717Z,96.11
2022-08-19T10:48:57.509Z,96.41
2022-08-19T10:49:57.911Z,96.71
2022-08-19T10:51:05.708Z,96.61
2022-08-19T10:51:57.536Z,96.71
2022-08-19T10:52:57.474Z,96.71
2022-08-19T10:53:57.970Z,96.51
2022-08-19T10:55:08.269Z,96.61
2022-08-19T10:56:06.379Z,97.02
2022-08-19T10:56:57.568Z,96.91
2022-08-19T10:58:02.510Z,97.11
2022-08-19T11:02:28.375Z,97.46
2022-08-19T11:03:36.359Z,97.46
2022-08-19T11:04:36.621Z,97.76
2022-08-19T11:05:36.613Z,97.96
2022-08-19T11:06:35.423Z,97.66
2022-08-19T11:07:35.238Z,97.66
2022-08-19T11:08:35.660Z,97.91
2022-08-19T11:09:36.240Z,97.81
2022-08-19T11:10:36.247Z,97.76
2022-08-19T11:11:35.192Z,97.91
2022-08-19T11:12:35.271Z,98.21
2022-08-19T11:13:35.721Z,98.51
2022-08-19T11:14:36.209Z,98.41
2022-08-19T11:15:35.233Z,98.31
2022-08-19T11:16:36.142Z,98.51
2022-08-19T11:17:35.165Z,98.71
2022-08-19T11:18:35.214Z,99.01
2022-08-19T11:19:35.678Z,99.01
2022-08-19T11:20:36.402Z,99.01
2022-08-19T11:21:27.961Z,99.21
2022-08-19T11:22:40.611Z,99.46
2022-08-19T11:23:28.932Z,99.41
2022-08-19T11:24:28.433Z,99.21
2022-08-19T11:25:28.345Z,99.21
2022-08-19T11:26:27.874Z,99.11
2022-08-19T11:27:27.827Z,99.32
2022-08-19T11:28:27.820Z,99.62
2022-08-19T11:29:27.827Z,99.21
2022-08-19T11:30:28.236Z,99.32
2022-08-19T11:31:29.075Z,99.41
2022-08-19T11:32:27.817Z,99.41
2022-08-19T11:33:28.207Z,99.11
2022-08-19T11:34:28.082Z,98.66
2022-08-19T11:35:27.747Z,98.57
2022-08-19T11:36:27.764Z,98.36
2022-08-19T11:37:27.795Z,98.36
2022-08-19T11:38:27.744Z,98.32
2022-08-19T11:39:27.665Z,97.52
2022-08-19T11:40:27.816Z,97.41
2022-08-19T11:41:27.682Z,97.31
2022-08-19T11:42:27.619Z,97.21
2022-08-19T11:43:36.767Z,96.97
2022-08-19T11:44:27.624Z,96.56
2022-08-19T11:45:28.016Z,96.62
2022-08-19T11:46:27.590Z,96.12
2022-08-19T11:47:27.618Z,95.86
2022-08-19T11:48:27.595Z,95.97
2022-08-19T11:49:27.585Z,96.47
2022-08-19T11:50:27.903Z,97.06
2022-08-19T11:51:27.564Z,96.87
2022-08-19T11:52:27.567Z,97.31
2022-08-19T11:53:27.566Z,97.21
2022-08-19T11:54:27.563Z,97.52
2022-08-19T11:55:28.091Z,97.96
2022-08-19T11:56:27.467Z,97.96
2022-08-19T11:57:28.353Z,98.46
2022-08-19T11:58:27.525Z,98.51
2022-08-19T11:59:27.472Z,98.71
2022-08-19T12:00:27.843Z,98.61
2022-08-19T12:01:27.416Z,98.71
2022-08-19T12:02:27.391Z,98.91
2022-08-19T12:03:27.410Z,99.32
2022-08-19T12:04:27.351Z,99.41
2022-08-19T12:05:27.373Z,99.21
2022-08-19T12:06:27.377Z,99.32
2022-08-19T12:07:27.364Z,99.32
2022-08-19T12:08:27.296Z,99.32
2022-08-19T12:09:27.283Z,98.91
2022-08-19T12:10:27.684Z,99.21
2022-08-19T12:11:27.306Z,99.52
2022-08-19T12:12:27.264Z,99.52
2022-08-19T12:13:27.243Z,99.66
2022-08-19T12:14:27.304Z,99.21
2022-08-19T12:15:27.212Z,99.36
2022-08-19T12:16:27.736Z,99.41
2022-08-19T12:17:27.173Z,99.62
2022-08-19T12:18:27.142Z,99.11
2022-08-19T12:19:27.142Z,99.32
2022-08-19T12:20:27.169Z,99.32
2022-08-19T12:21:27.492Z,99.41
2022-08-19T12:22:27.120Z,99.41
2022-08-19T12:23:27.171Z,99.11
2022-08-19T12:24:27.062Z,99.52
2022-08-19T12:25:27.063Z,99.71
2022-08-19T12:26:27.090Z,99.52
2022-08-19T12:27:39.956Z,99.62
2022-08-19T12:28:28.102Z,99.87
2022-08-19T12:29:27.023Z,99.87
2022-08-19T12:30:26.998Z,99.87
2022-08-19T12:31:27.013Z,99.87
2022-08-19T12:32:27.009Z,99.99
2022-08-19T12:33:27.360Z,99.99
2022-08-19T12:34:26.942Z,99.96
2022-08-19T12:35:26.951Z,99.99
2022-08-19T12:36:26.930Z,99.99
2022-08-19T12:37:26.950Z,99.99
2022-08-19T12:38:26.901Z,99.99
2022-08-19T12:39:26.979Z,99.99
2022-08-19T12:40:26.881Z,99.99
2022-08-19T12:41:26.870Z,99.99
2022-08-19T12:42:26.922Z,99.99
2022-08-19T12:43:26.859Z,99.99
2022-08-19T12:44:29.310Z,99.99
2022-08-19T12:45:27.271Z,99.99
2022-08-19T12:46:26.850Z,99.99
2022-08-19T12:47:26.791Z,99.99
2022-08-19T12:48:33.246Z,99.96
2022-08-19T12:49:43.565Z,99.76
2022-08-19T12:50:28.188Z,99.87
2022-08-19T12:51:26.740Z,99.96
2022-08-19T12:52:26.737Z,99.99
2022-08-19T12:53:26.698Z,99.99
2022-08-19T12:54:26.679Z,99.99
2022-08-19T12:55:26.909Z,99.99
2022-08-19T12:56:26.666Z,99.99
2022-08-19T12:57:33.002Z,99.99
2022-08-19T12:58:27.687Z,99.99
2022-08-19T12:59:26.627Z,99.99
2022-08-19T13:00:26.939Z,99.82
2022-08-19T13:01:26.668Z,99.91
2022-08-19T13:02:26.667Z,99.62
2022-08-19T13:03:26.647Z,99.91
2022-08-19T13:04:26.609Z,99.71